Terminal Aerodrome Forecast
Issued by NWS

Home | Current Version | Previous Version | Text Only | Print | Product List | Glossary On
Versions: 1 2 3 4 5 6 7 8 9 10 11 12 13 14 15 16 17 18
000
FTUS44 KLZK 012300 RRA
TAFLLQ
TAF
KLLQ 012348Z 0200/0224 22008KT P6SM FEW250
     FM020300 22008KT P6SM FEW250
     FM021200 23010G18KT P6SM FEW035 BKN150
     FM021600 24016G25KT P6SM FEW050 SCT100 SCT250=

USA.gov is the U.S. government's official web portal to all federal, state and local government web resources and services.